Time;durP1;ratioP1;P1;durP2;ratioP2;P2;SDS_P1;SDS_P2;PMS_P1;PMS_P2;Temp;Humidity;BMP_temperature;BMP_pressure;BME280_temperature;BME280_humidity;BME280_pressure;Samples;Min_cycle;Max_cycle;Signal;HPM_P1;HPM_P2
2022/12/20 00:01:48;;;;;;;4.15;0.50;;;;;;;18.05;35.62;101302.19;16132045;19;129597;-57
2022/12/20 00:07:10;;;;;;;4.90;0.73;;;;;;;18.03;35.64;101293.28;16131900;19;130664;-58
2022/12/20 00:12:32;;;;;;;3.55;0.82;;;;;;;18.00;35.85;101294.56;16129352;19;129682;-58
2022/12/20 00:17:54;;;;;;;1.60;0.47;;;;;;;17.97;35.88;101293.13;16132481;19;135339;-58
2022/12/20 00:23:15;;;;;;;1.70;0.50;;;;;;;17.95;35.83;101286.16;16130271;19;130343;-57
2022/12/20 00:28:39;;;;;;;1.15;0.60;;;;;;;17.94;35.71;101278.91;16129935;19;129640;-57
2022/12/20 00:34:01;;;;;;;3.13;0.30;;;;;;;17.91;35.85;101279.38;16131866;19;129766;-60
2022/12/20 00:39:22;;;;;;;1.63;0.52;;;;;;;17.89;35.77;101276.00;16131856;19;129524;-58
2022/12/20 00:44:44;;;;;;;1.30;0.60;;;;;;;17.87;35.86;101267.06;16129715;19;129221;-59
2022/12/20 00:50:06;;;;;;;2.25;0.60;;;;;;;17.85;35.52;101264.53;16128456;19;129862;-57
2022/12/20 00:55:28;;;;;;;0.68;0.40;;;;;;;17.82;35.85;101268.63;16129443;19;130227;-61
2022/12/20 01:00:50;;;;;;;0.95;0.55;;;;;;;17.82;35.75;101251.16;16131487;19;129756;-60
2022/12/20 01:06:17;;;;;;;1.75;0.47;;;;;;;17.80;35.86;101245.88;16130427;19;129335;-58
2022/12/20 01:11:39;;;;;;;1.10;0.40;;;;;;;17.78;35.38;101234.19;16129341;19;130250;-59
2022/12/20 01:17:01;;;;;;;0.40;0.20;;;;;;;17.77;35.80;101223.34;16129286;19;129639;-58
2022/12/20 01:22:23;;;;;;;1.05;0.30;;;;;;;17.74;35.61;101221.88;16126863;19;128938;-58
2022/12/20 01:27:45;;;;;;;2.38;0.50;;;;;;;17.73;35.71;101227.66;16127961;19;129519;-58
2022/12/20 01:33:06;;;;;;;0.50;0.40;;;;;;;17.72;35.80;101226.84;16126726;19;129568;-58
2022/12/20 01:38:28;;;;;;;0.95;0.38;;;;;;;17.70;35.88;101217.91;16123791;19;129819;-58
2022/12/20 01:43:53;;;;;;;0.82;0.40;;;;;;;17.69;35.53;101228.13;16127261;19;129448;-58
2022/12/20 01:49:23;;;;;;;0.80;0.45;;;;;;;17.68;35.72;101220.06;16124967;19;129370;-58
2022/12/20 01:54:48;;;;;;;0.43;0.32;;;;;;;17.66;35.65;101202.84;16124143;19;130477;-58
2022/12/20 02:00:11;;;;;;;0.68;0.40;;;;;;;17.65;35.45;101209.44;16123987;19;129874;-57
2022/12/20 02:05:41;;;;;;;1.77;0.45;;;;;;;17.63;35.69;101197.78;16124944;19;130230;-58
2022/12/20 02:11:36;;;;;;;0.95;0.40;;;;;;;17.63;35.87;101193.09;16125159;19;129614;-58
2022/12/20 02:17:17;;;;;;;1.02;0.50;;;;;;;17.61;35.55;101194.38;16123738;19;129255;-57
2022/12/20 02:22:41;;;;;;;0.47;0.40;;;;;;;17.58;35.75;101194.88;16123887;19;131368;-57
2022/12/20 02:28:16;;;;;;;0.85;0.43;;;;;;;17.58;35.73;101198.47;16121006;19;128981;-57
2022/12/20 02:33:42;;;;;;;1.05;0.50;;;;;;;17.56;35.61;101184.03;16123767;19;129699;-57
2022/12/20 02:39:04;;;;;;;1.52;0.47;;;;;;;17.53;35.88;101185.31;16121941;19;130042;-58
2022/12/20 02:50:10;;;;;;;0.85;0.40;;;;;;;17.51;35.66;101168.09;16122415;19;130129;-57
2022/12/20 02:55:52;;;;;;;1.60;0.50;;;;;;;17.52;35.72;101161.47;16125718;19;129427;-57
2022/12/20 03:01:26;;;;;;;1.50;0.40;;;;;;;17.51;35.95;101170.03;16121540;19;130465;-58
2022/12/20 03:07:06;;;;;;;1.55;0.30;;;;;;;17.50;36.01;101173.88;16122604;19;129567;-58
2022/12/20 03:12:27;;;;;;;0.60;0.35;;;;;;;17.47;36.06;101177.94;16119767;19;130165;-57
2022/12/20 03:17:49;;;;;;;1.20;0.43;;;;;;;17.46;35.77;101167.97;16119244;19;130310;-58
2022/12/20 03:23:11;;;;;;;0.98;0.28;;;;;;;17.47;35.88;101163.25;16117999;19;129758;-58
2022/12/20 03:28:32;;;;;;;2.97;0.40;;;;;;;17.45;35.98;101155.22;16122114;19;130001;-58
2022/12/20 03:33:55;;;;;;;1.80;0.45;;;;;;;17.46;35.71;101169.88;16127946;19;130376;-58
2022/12/20 03:39:16;;;;;;;1.27;0.45;;;;;;;17.45;35.93;101162.66;16129745;19;130326;-59
2022/12/20 03:44:38;;;;;;;1.58;0.60;;;;;;;17.44;35.76;101158.19;16134457;19;129783;-58
2022/12/20 03:50:00;;;;;;;1.13;0.40;;;;;;;17.42;36.02;101163.97;16132704;19;129414;-58
2022/12/20 03:55:22;;;;;;;0.93;0.32;;;;;;;17.41;35.89;101153.97;16130521;19;129388;-57
2022/12/20 04:00:44;;;;;;;4.07;0.45;;;;;;;17.41;36.10;101140.16;16132552;19;129152;-58
2022/12/20 04:06:06;;;;;;;2.47;0.50;;;;;;;17.40;36.15;101149.53;16131566;19;130212;-59
2022/12/20 04:11:28;;;;;;;2.47;0.45;;;;;;;17.39;36.14;101150.59;16132563;19;130398;-58
2022/12/20 04:16:49;;;;;;;1.60;0.40;;;;;;;17.39;36.29;101142.28;16132331;19;129350;-58
2022/12/20 04:22:11;;;;;;;4.95;0.40;;;;;;;17.38;35.96;101135.06;16132020;19;130124;-58
2022/12/20 04:27:33;;;;;;;0.60;0.30;;;;;;;17.37;35.84;101130.63;16131835;19;129972;-58
2022/12/20 04:32:55;;;;;;;2.05;0.60;;;;;;;17.35;35.92;101117.03;16131066;19;130491;-58
2022/12/20 04:38:18;;;;;;;1.50;0.30;;;;;;;17.36;36.20;101113.19;16131184;19;129267;-58
2022/12/20 04:43:40;;;;;;;3.70;0.50;;;;;;;17.35;35.88;101116.22;16129426;19;129761;-58
2022/12/20 04:49:01;;;;;;;1.50;0.73;;;;;;;17.35;36.33;101107.91;16131231;19;129987;-57
2022/12/20 04:54:25;;;;;;;0.40;0.30;;;;;;;17.34;35.91;101092.38;16129943;19;129284;-58
2022/12/20 04:59:47;;;;;;;2.15;0.57;;;;;;;17.33;35.95;101096.22;16129893;19;130152;-58
2022/12/20 05:05:09;;;;;;;1.83;0.40;;;;;;;17.32;35.95;101092.59;16126615;19;129323;-58
2022/12/20 05:10:30;;;;;;;1.30;0.30;;;;;;;17.32;36.20;101084.31;16128838;19;129215;-58
2022/12/20 05:15:54;;;;;;;0.43;0.40;;;;;;;17.33;36.31;101076.88;16128425;19;129633;-58
2022/12/20 05:26:56;;;;;;;0.73;0.35;;;;;;;17.30;35.92;101085.63;16128171;19;129422;-58
2022/12/20 05:32:18;;;;;;;0.90;0.30;;;;;;;17.29;36.08;101067.34;16125178;19;129258;-58
2022/12/20 05:37:40;;;;;;;1.05;0.30;;;;;;;17.29;35.91;101061.81;16126633;19;129498;-58
2022/12/20 05:43:02;;;;;;;1.60;0.40;;;;;;;17.26;36.40;101052.06;16125582;19;129075;-58
2022/12/20 05:48:24;;;;;;;0.82;0.32;;;;;;;17.26;35.99;101029.09;16122646;19;130260;-58
2022/12/20 05:53:46;;;;;;;0.65;0.35;;;;;;;17.24;36.09;101010.81;16123133;19;129708;-57
2022/12/20 05:59:08;;;;;;;0.40;0.30;;;;;;;17.24;36.27;101019.13;16123013;19;129265;-58
2022/12/20 06:04:31;;;;;;;1.85;0.43;;;;;;;17.25;36.07;101019.97;16125182;19;130179;-57
2022/12/20 06:09:53;;;;;;;0.30;0.30;;;;;;;17.24;36.37;101030.19;16125537;19;129688;-58
2022/12/20 06:15:14;;;;;;;0.98;0.43;;;;;;;17.24;36.29;101021.88;16125215;19;129919;-56
2022/12/20 06:20:37;;;;;;;2.17;0.30;;;;;;;17.25;36.39;101014.44;16125954;19;129855;-57
2022/12/20 06:25:58;;;;;;;4.28;0.50;;;;;;;17.25;36.54;101003.38;16122410;19;131117;-57
2022/12/20 06:31:20;;;;;;;3.65;0.50;;;;;;;17.24;36.22;100999.75;16122812;19;129643;-57
2022/12/20 06:36:42;;;;;;;4.00;0.60;;;;;;;17.26;36.23;101006.97;16125220;19;129548;-57
2022/12/20 06:42:04;;;;;;;3.08;0.65;;;;;;;17.26;36.58;101018.03;16124637;19;130691;-56
2022/12/20 06:47:26;;;;;;;2.15;0.45;;;;;;;17.26;36.21;101018.03;16121041;19;131183;-55
2022/12/20 06:52:48;;;;;;;1.10;0.40;;;;;;;17.26;36.36;101029.09;16123930;19;129349;-58
2022/12/20 06:58:09;;;;;;;5.45;0.47;;;;;;;17.26;36.22;101029.09;16119485;19;129472;-57
2022/12/20 07:03:31;;;;;;;4.35;0.70;;;;;;;17.25;36.70;101011.69;16125220;19;129778;-58
2022/12/20 07:08:53;;;;;;;7.45;0.65;;;;;;;17.26;36.60;101026.34;16130636;19;129332;-58
2022/12/20 07:14:15;;;;;;;2.60;0.63;;;;;;;17.24;36.82;101021.88;16136639;19;129257;-58
2022/12/20 07:19:37;;;;;;;11.80;1.00;;;;;;;17.24;36.82;101055.06;16137436;19;129739;-57
2022/12/20 07:24:58;;;;;;;5.95;0.73;;;;;;;17.23;36.93;101058.91;16135354;19;130655;-58
2022/12/20 07:30:20;;;;;;;6.43;0.85;;;;;;;17.22;36.53;101057.25;16135591;19;129098;-57
2022/12/20 07:35:44;;;;;;;9.55;0.73;;;;;;;17.22;37.10;101062.78;16139090;19;129812;-57
2022/12/20 07:41:15;;;;;;;16.63;1.10;;;;;;;17.21;37.20;101066.59;16137551;19;129673;-57
2022/12/20 07:46:37;;;;;;;9.30;0.80;;;;;;;17.21;37.20;101074.91;16134589;19;129439;-58
2022/12/20 07:52:01;;;;;;;8.93;0.80;;;;;;;17.20;36.82;101070.44;16136149;19;133978;-57
2022/12/20 07:57:30;;;;;;;7.28;0.88;;;;;;;17.21;37.20;101085.97;16130825;19;130096;-57
2022/12/20 08:03:05;;;;;;;4.93;0.90;;;;;;;17.22;37.07;101089.56;16131213;19;129470;-58
2022/12/20 08:08:26;;;;;;;5.40;0.80;;;;;;;17.20;37.05;101089.81;16129890;19;129127;-57
2022/12/20 08:13:50;;;;;;;6.38;0.98;;;;;;;17.20;36.99;101075.13;16132886;19;129413;-58
2022/12/20 08:19:18;;;;;;;7.00;0.90;;;;;;;17.19;37.14;101067.91;16132698;19;129388;-58
2022/12/20 08:24:40;;;;;;;4.70;0.70;;;;;;;17.18;37.16;101067.06;16134654;19;129676;-55
2022/12/20 08:30:03;;;;;;;3.25;0.90;;;;;;;17.18;37.37;101061.53;16135057;19;129412;-56
2022/12/20 08:35:25;;;;;;;6.10;0.85;;;;;;;17.19;36.96;101057.69;16134986;19;130434;-57
2022/12/20 08:40:46;;;;;;;4.28;0.60;;;;;;;17.20;36.93;101053.00;16130758;19;129724;-57
2022/12/20 08:46:10;;;;;;;3.85;0.90;;;;;;;17.20;37.21;101045.56;16127981;19;129699;-57
2022/12/20 08:51:32;;;;;;;1.70;0.57;;;;;;;17.19;37.51;101043.88;16127310;19;130163;-58
2022/12/20 08:56:54;;;;;;;5.30;0.60;;;;;;;17.21;37.34;101033.44;16129426;19;130572;-58
2022/12/20 09:02:17;;;;;;;4.15;0.50;;;;;;;17.20;37.33;101031.75;16129576;19;129270;-58
2022/12/20 09:07:39;;;;;;;3.35;0.50;;;;;;;17.21;37.49;101030.66;16130552;19;134831;-58
2022/12/20 09:13:00;;;;;;;3.70;0.55;;;;;;;17.23;37.50;101027.66;16129074;19;129729;-58
2022/12/20 09:18:22;;;;;;;5.88;0.70;;;;;;;17.24;37.12;101035.69;16127281;19;129572;-57
2022/12/20 09:23:44;;;;;;;2.70;0.70;;;;;;;17.23;37.43;101034.00;16128986;19;130867;-56
2022/12/20 09:29:05;;;;;;;3.85;0.63;;;;;;;17.25;37.63;101033.78;16124809;19;129301;-58
2022/12/20 09:34:27;;;;;;;3.58;0.70;;;;;;;17.25;37.32;101033.78;16126425;19;129492;-58
2022/12/20 09:39:50;;;;;;;1.48;0.45;;;;;;;17.27;37.66;101042.72;16128974;19;131051;-58
2022/12/20 09:45:27;;;;;;;1.85;0.40;;;;;;;17.29;37.30;101053.53;16126421;19;130004;-57
2022/12/20 09:51:19;;;;;;;1.58;0.30;;;;;;;17.29;37.54;101053.53;16127072;19;129155;-58
2022/12/20 09:57:07;;;;;;;1.13;0.47;;;;;;;17.26;37.83;101043.78;16130561;19;130040;-57
2022/12/20 10:02:29;;;;;;;1.23;0.40;;;;;;;17.26;37.41;101046.53;16124174;19;130694;-57
2022/12/20 10:08:14;;;;;;;1.85;0.50;;;;;;;17.28;37.54;101038.00;16124206;19;129417;-58
2022/12/20 10:13:54;;;;;;;1.00;0.43;;;;;;;17.29;37.85;101034.16;16125317;19;130425;-58
2022/12/20 10:19:51;;;;;;;1.55;0.40;;;;;;;17.29;37.64;101031.41;16123254;19;131104;-60
2022/12/20 10:25:21;;;;;;;2.63;0.50;;;;;;;17.26;37.96;101032.72;16122162;19;129022;-58
2022/12/20 10:30:43;;;;;;;20.48;1.20;;;;;;;17.32;38.32;101033.72;16124027;19;129574;-58
2022/12/20 10:36:22;;;;;;;22.23;1.10;;;;;;;17.40;38.54;101025.06;16123195;19;129886;-57
2022/12/20 10:41:50;;;;;;;18.83;1.05;;;;;;;17.39;38.60;101031.66;16128456;19;129437;-58
2022/12/20 10:47:32;;;;;;;13.70;1.05;;;;;;;17.38;38.14;101024.44;16139481;19;129297;-58
2022/12/20 10:53:09;;;;;;;6.88;1.33;;;;;;;17.36;38.41;101023.84;16138235;19;133018;-57
2022/12/20 10:58:34;;;;;;;12.38;1.05;;;;;;;17.32;38.27;101017.13;16139097;19;129251;-58
2022/12/20 11:04:02;;;;;;;8.13;1.17;;;;;;;17.31;38.11;101010.72;16140873;19;129607;-57
2022/12/20 11:09:31;;;;;;;12.65;1.38;;;;;;;17.31;38.06;101016.25;16138634;19;131030;-58
2022/12/20 11:15:18;;;;;;;5.75;1.40;;;;;;;17.31;38.46;101012.66;16138005;19;129426;-58
2022/12/20 11:20:52;;;;;;;15.32;1.70;;;;;;;17.30;38.56;101002.69;16136456;19;130895;-58
2022/12/20 11:26:41;;;;;;;12.35;1.92;;;;;;;17.31;38.74;101002.44;16133980;19;129437;-57
2022/12/20 11:32:27;;;;;;;10.65;1.52;;;;;;;17.34;38.58;101001.13;16132155;19;131087;-57
2022/12/20 11:38:00;;;;;;;3.50;1.17;;;;;;;17.37;38.63;100992.34;16135050;19;129495;-58
2022/12/20 11:43:52;;;;;;;6.18;1.38;;;;;;;17.37;38.44;100987.66;16134829;19;129917;-57
2022/12/20 11:50:08;;;;;;;11.60;1.77;;;;;;;17.37;38.28;100981.28;16133499;19;132356;-58
2022/12/20 11:55:35;;;;;;;5.50;0.93;;;;;;;17.33;38.52;100991.16;16126758;19;132023;-57
2022/12/20 12:01:03;;;;;;;4.22;1.40;;;;;;;17.32;38.69;100975.63;16133902;19;129603;-58
2022/12/20 12:06:30;;;;;;;3.00;1.10;;;;;;;17.30;38.60;100966.72;16152128;19;129843;-58
2022/12/20 12:12:00;;;;;;;4.28;1.35;;;;;;;17.29;38.60;100965.91;16152280;19;129770;-58
2022/12/20 12:17:42;;;;;;;8.77;1.10;;;;;;;17.28;38.34;100966.13;16150031;19;129705;-58
2022/12/20 12:23:23;;;;;;;4.10;1.08;;;;;;;17.27;38.50;100947.84;16152180;19;130718;-57
2022/12/20 12:28:52;;;;;;;4.70;0.90;;;;;;;17.24;38.66;100944.47;16148723;19;129364;-57
2022/12/20 12:34:59;;;;;;;2.10;0.88;;;;;;;17.24;38.73;100936.16;16151012;19;129242;-57
2022/12/20 12:40:46;;;;;;;8.70;1.48;;;;;;;17.22;38.45;100935.59;16148708;19;129621;-58
2022/12/20 12:46:19;;;;;;;2.42;1.10;;;;;;;17.20;38.50;100943.28;16149260;19;129401;-58
2022/12/20 12:51:49;;;;;;;4.97;1.08;;;;;;;17.20;38.82;100940.50;16149640;19;130045;-58
2022/12/20 12:57:16;;;;;;;3.67;1.10;;;;;;;17.20;38.77;100939.66;16148954;19;129694;-57
2022/12/20 13:02:49;;;;;;;7.30;0.80;;;;;;;17.20;38.44;100943.28;16149529;19;129386;-57
2022/12/20 13:08:16;;;;;;;4.28;0.80;;;;;;;17.19;38.63;100951.78;16148174;19;129093;-57
2022/12/20 13:13:37;;;;;;;2.72;0.70;;;;;;;17.18;38.44;100945.41;16149947;19;129717;-57
2022/12/20 13:19:09;;;;;;;2.90;0.70;;;;;;;17.19;38.71;100952.63;16149104;19;130705;-59
2022/12/20 13:24:35;;;;;;;2.90;1.13;;;;;;;17.18;38.69;100950.94;16147855;19;130681;-58
2022/12/20 13:30:21;;;;;;;2.70;0.57;;;;;;;17.18;38.74;100944.56;16151570;19;128996;-56
2022/12/20 13:35:53;;;;;;;2.40;0.70;;;;;;;17.17;38.60;100934.63;16149501;19;129304;-58
2022/12/20 13:41:44;;;;;;;1.88;0.75;;;;;;;17.17;38.68;100938.22;16146075;19;129965;-58
2022/12/20 13:47:27;;;;;;;4.47;0.73;;;;;;;17.16;38.80;100939.28;16145238;19;128996;-57
2022/12/20 13:52:49;;;;;;;13.07;1.15;;;;;;;17.16;38.80;100935.69;16143050;19;129593;-58
2022/12/20 13:58:16;;;;;;;4.40;0.70;;;;;;;17.17;38.62;100937.38;16141762;19;129457;-56
2022/12/20 14:03:46;;;;;;;3.83;0.65;;;;;;;17.16;38.86;100931.00;16145846;19;129114;-58
2022/12/20 14:09:31;;;;;;;11.60;1.48;;;;;;;17.16;38.49;100925.47;16141724;19;129448;-57
2022/12/20 14:14:54;;;;;;;7.85;1.52;;;;;;;17.15;38.57;100932.06;16141964;19;129528;-58
2022/12/20 14:20:22;;;;;;;13.25;1.02;;;;;;;17.16;38.82;100924.63;16140470;19;129384;-58
2022/12/20 14:25:51;;;;;;;6.35;0.95;;;;;;;17.15;38.68;100923.78;16143736;19;129630;-57
2022/12/20 14:31:33;;;;;;;13.35;1.35;;;;;;;17.16;38.80;100919.94;16140744;19;129172;-57
2022/12/20 14:37:33;;;;;;;9.75;0.80;;;;;;;17.15;38.50;100923.78;16126483;19;130225;-58
2022/12/20 14:42:55;;;;;;;5.97;0.80;;;;;;;17.13;38.57;100920.41;16124191;19;130146;-57
2022/12/20 14:48:17;;;;;;;12.50;1.00;;;;;;;17.12;39.00;100906.81;16121194;19;130339;-57
2022/12/20 14:53:39;;;;;;;3.65;0.75;;;;;;;17.13;38.82;100914.88;16123928;19;135752;-57
2022/12/20 14:59:14;;;;;;;7.35;0.80;;;;;;;17.13;38.67;100906.56;16120753;19;129191;-58
2022/12/20 15:04:36;;;;;;;3.97;0.43;;;;;;;17.11;38.86;100899.59;16122566;19;129539;-55
2022/12/20 15:09:58;;;;;;;7.38;0.75;;;;;;;17.10;38.79;100896.00;16121122;19;129789;-57
2022/12/20 15:15:19;;;;;;;8.32;0.93;;;;;;;17.10;38.85;100901.53;16119302;19;129292;-58
2022/12/20 15:21:04;;;;;;;2.30;0.63;;;;;;;17.12;38.73;100906.81;16120492;19;129915;-58
2022/12/20 15:26:27;;;;;;;;;;;;;;;17.05;38.92;100905.00;16117863;19;128973;-57
2022/12/20 15:31:50;;;;;;;5.07;0.73;;;;;;;17.08;38.83;100900.94;16130898;19;129696;-57
2022/12/20 15:37:14;;;;;;;3.05;0.60;;;;;;;17.06;38.66;100908.63;16136621;19;129521;-58
2022/12/20 15:42:42;;;;;;;2.70;0.60;;;;;;;17.07;38.52;100915.81;16137547;19;131719;-58
2022/12/20 15:48:04;;;;;;;2.63;0.52;;;;;;;17.07;38.79;100910.31;16135223;19;129398;-59
2022/12/20 15:53:31;;;;;;;7.10;0.70;;;;;;;17.07;38.60;100911.13;16133787;19;129349;-58
2022/12/20 15:58:53;;;;;;;1.77;0.50;;;;;;;17.08;38.45;100903.69;16134758;19;129528;-58
2022/12/20 16:04:17;;;;;;;2.25;0.63;;;;;;;17.06;38.95;100903.91;16133858;19;129619;-59
2022/12/20 16:09:39;;;;;;;6.60;0.60;;;;;;;17.07;38.47;100900.06;16134919;19;129666;-58
2022/12/20 16:15:01;;;;;;;3.95;0.47;;;;;;;17.08;38.83;100899.00;16133972;19;129090;-55
2022/12/20 16:20:23;;;;;;;4.78;0.68;;;;;;;17.08;38.82;100910.06;16133361;19;130174;-57
2022/12/20 16:25:45;;;;;;;1.83;0.50;;;;;;;17.08;38.58;100909.22;16133414;19;129620;-65
2022/12/20 16:31:16;;;;;;;2.97;0.70;;;;;;;17.10;38.54;100908.97;16132623;19;129658;-58
2022/12/20 16:36:38;;;;;;;4.25;0.52;;;;;;;17.08;38.92;100898.16;16132728;19;129162;-58
2022/12/20 16:42:00;;;;;;;3.10;0.77;;;;;;;17.08;38.98;100892.63;16129655;19;129299;-58
2022/12/20 16:47:22;;;;;;;2.88;1.10;;;;;;;17.07;38.72;100893.72;16129154;19;131872;-58
2022/12/20 16:52:45;;;;;;;5.00;1.10;;;;;;;17.06;38.93;100887.31;16129918;19;129264;-59
2022/12/20 16:58:07;;;;;;;6.07;1.17;;;;;;;17.05;38.82;100887.56;16130255;19;129609;-55
2022/12/20 17:03:28;;;;;;;6.85;1.17;;;;;;;17.03;39.12;100881.44;16128778;19;129212;-58
2022/12/20 17:08:51;;;;;;;1.60;0.90;;;;;;;17.05;38.74;100882.03;16131179;19;129553;-58
2022/12/20 17:14:26;;;;;;;5.32;1.10;;;;;;;17.03;38.94;100889.72;16129327;19;129435;-58
2022/12/20 17:19:48;;;;;;;7.50;1.10;;;;;;;17.04;38.80;100899.72;16129632;19;129400;-59
2022/12/20 17:25:18;;;;;;;2.17;1.10;;;;;;;17.04;39.23;100905.25;16126890;19;130292;-58
2022/12/20 17:30:40;;;;;;;4.07;0.98;;;;;;;17.02;39.35;100913.78;16127069;19;129577;-56
2022/12/20 17:36:01;;;;;;;4.57;1.50;;;;;;;17.03;38.86;100914.59;16129393;19;129550;-57
2022/12/20 17:41:29;;;;;;;4.28;1.17;;;;;;;17.04;39.15;100906.09;16127476;19;129426;-58
2022/12/20 17:46:52;;;;;;;5.65;1.20;;;;;;;17.03;39.24;100909.06;16126081;19;129054;-58
2022/12/20 17:52:14;;;;;;;3.05;1.20;;;;;;;17.02;39.31;100907.38;16126063;19;129954;-58
2022/12/20 17:57:36;;;;;;;3.15;1.17;;;;;;;17.01;39.10;100895.50;16126934;19;129570;-58
2022/12/20 18:02:58;;;;;;;1.88;1.00;;;;;;;17.02;38.91;100901.84;16122402;19;129460;-57
2022/12/20 18:08:20;;;;;;;3.42;1.25;;;;;;;17.02;39.16;100907.38;16113032;19;129692;-57
2022/12/20 18:13:43;;;;;;;2.90;1.40;;;;;;;17.01;39.24;100906.56;16115292;19;130144;-56
2022/12/20 18:19:06;;;;;;;9.50;1.40;;;;;;;17.02;39.53;100907.38;16117282;19;130035;-59
2022/12/20 18:24:28;;;;;;;10.40;1.35;;;;;;;17.23;39.58;100904.06;16122675;19;129126;-53
2022/12/20 18:29:53;;;;;;;10.90;1.25;;;;;;;17.69;39.70;100918.22;16126650;19;129520;-59
2022/12/20 18:35:15;;;;;;;8.05;1.63;;;;;;;18.23;38.85;100908.06;16131649;19;130908;-60
2022/12/20 18:40:36;;;;;;;17.70;1.35;;;;;;;18.75;38.63;100924.69;16129324;19;128984;-62
2022/12/20 18:46:05;;;;;;;6.55;1.27;;;;;;;19.21;37.66;100915.56;16130399;19;129575;-61
2022/12/20 18:51:38;;;;;;;7.13;1.20;;;;;;;19.58;37.61;100906.72;16124498;19;130285;-61
2022/12/20 18:56:59;;;;;;;9.35;1.75;;;;;;;19.91;36.87;100906.94;16125686;19;129409;-60
2022/12/20 19:02:21;;;;;;;14.18;1.10;;;;;;;20.18;36.88;100907.09;16125842;19;129915;-59
2022/12/20 19:07:43;;;;;;;5.97;1.23;;;;;;;20.43;36.48;100914.09;16140927;19;129325;-59
2022/12/20 19:13:05;;;;;;;10.32;1.38;;;;;;;20.60;36.06;100909.28;16140361;19;130581;-61
2022/12/20 19:18:27;;;;;;;9.18;1.63;;;;;;;20.63;36.26;100907.91;16138221;19;129737;-59
2022/12/20 19:23:51;;;;;;;8.32;1.23;;;;;;;20.53;36.13;100903.09;16139026;19;129547;-61
2022/12/20 19:29:12;;;;;;;12.20;1.42;;;;;;;20.37;36.35;100909.53;16135679;19;129435;-61
2022/12/20 19:34:34;;;;;;;10.25;1.00;;;;;;;20.20;36.79;100921.53;16138692;19;131086;-61
2022/12/20 19:39:56;;;;;;;12.13;1.10;;;;;;;20.04;36.64;100911.34;16139669;19;130346;-61
2022/12/20 19:45:18;;;;;;;7.35;0.90;;;;;;;19.86;36.83;100913.28;16138563;19;129591;-60
2022/12/20 19:50:39;;;;;;;10.43;1.58;;;;;;;19.76;37.40;100935.31;16137891;19;130896;-60
2022/12/20 19:56:01;;;;;;;10.57;1.30;;;;;;;19.73;37.18;100927.50;16137975;19;129628;-59
2022/12/20 20:01:26;;;;;;;4.40;0.77;;;;;;;19.80;37.24;100930.97;16137412;19;129727;-62
2022/12/20 20:06:48;;;;;;;3.43;0.80;;;;;;;19.86;36.93;100927.16;16137305;19;130414;-60
2022/12/20 20:12:10;;;;;;;2.72;0.80;;;;;;;19.94;37.11;100918.38;16134527;19;129972;-65
2022/12/20 20:17:31;;;;;;;3.92;0.80;;;;;;;20.00;36.85;100922.09;16133642;19;129464;-63
2022/12/20 20:22:53;;;;;;;4.10;0.90;;;;;;;20.02;36.96;100935.75;16130129;19;130944;-60
2022/12/20 20:28:15;;;;;;;5.43;0.98;;;;;;;20.05;36.81;100940.78;16133810;19;129618;-59
2022/12/20 20:33:37;;;;;;;7.55;0.80;;;;;;;20.07;36.75;100933.03;16135810;19;130337;-64
2022/12/20 20:38:59;;;;;;;15.23;1.00;;;;;;;20.09;37.05;100936.38;16133977;19;130569;-59
2022/12/20 20:44:21;;;;;;;17.80;1.13;;;;;;;20.10;36.89;100926.97;16135707;19;129693;-59
2022/12/20 20:49:42;;;;;;;11.38;1.00;;;;;;;20.11;37.44;100942.53;16137066;19;130528;-60
2022/12/20 20:55:06;;;;;;;6.25;1.23;;;;;;;20.16;37.24;100938.97;16135718;19;129289;-60
2022/12/20 21:00:30;;;;;;;20.83;1.35;;;;;;;20.18;37.53;100934.88;16148475;19;129232;-61
2022/12/20 21:05:52;;;;;;;21.85;1.65;;;;;;;20.19;37.56;100935.69;16134147;19;130186;-61
2022/12/20 21:11:35;;;;;;;8.05;1.10;;;;;;;20.19;37.23;100942.09;16132275;19;133664;-60
2022/12/20 21:16:57;;;;;;;19.98;1.63;;;;;;;20.14;37.76;100928.97;16129845;19;130398;-60
2022/12/20 21:22:19;;;;;;;11.95;0.98;;;;;;;20.06;37.85;100932.19;16129561;19;130375;-61
2022/12/20 21:27:41;;;;;;;15.50;1.48;;;;;;;19.97;37.71;100945.63;16124406;19;129623;-61
2022/12/20 21:33:03;;;;;;;14.07;1.38;;;;;;;19.89;37.90;100953.56;16128967;19;129321;-60
2022/12/20 21:38:24;;;;;;;13.98;1.45;;;;;;;19.81;38.02;100950.13;16128885;19;129266;-60
2022/12/20 21:43:46;;;;;;;16.60;1.17;;;;;;;19.73;38.64;100953.34;16129078;19;129866;-61
2022/12/20 21:49:08;;;;;;;25.23;2.35;;;;;;;19.62;38.39;100946.78;16129322;19;130008;-61
2022/12/20 21:54:30;;;;;;;21.05;1.60;;;;;;;19.49;38.25;100947.09;16125179;19;129730;-60
2022/12/20 21:59:51;;;;;;;11.13;1.00;;;;;;;19.42;38.42;100960.31;16125974;19;129145;-61
2022/12/20 22:05:14;;;;;;;12.00;1.23;;;;;;;19.34;38.61;100967.09;16123950;19;130328;-65
2022/12/20 22:10:36;;;;;;;16.55;1.58;;;;;;;19.27;38.92;100969.19;16120558;19;130865;-60
2022/12/20 22:15:57;;;;;;;9.30;0.95;;;;;;;19.20;38.70;100974.88;16122734;19;130308;-61
2022/12/20 22:21:22;;;;;;;16.98;1.40;;;;;;;19.11;38.87;100971.66;16123177;19;130825;-61
2022/12/20 22:26:44;;;;;;;7.33;1.13;;;;;;;19.04;38.72;100980.13;16126798;19;129475;-60
2022/12/20 22:32:06;;;;;;;7.32;1.30;;;;;;;18.96;39.15;100977.72;16120642;19;129414;-60
2022/12/20 22:37:28;;;;;;;7.65;0.70;;;;;;;18.88;39.05;100979.00;16124954;19;129648;-60
2022/12/20 22:42:49;;;;;;;9.40;0.90;;;;;;;18.83;39.04;100980.81;16139523;19;129670;-60
2022/12/20 22:48:11;;;;;;;6.95;1.00;;;;;;;18.77;39.17;100982.63;16136719;19;129680;-60
2022/12/20 22:53:34;;;;;;;7.72;0.88;;;;;;;18.73;39.03;100989.78;16138316;19;129555;-60
2022/12/20 22:58:56;;;;;;;5.18;0.80;;;;;;;18.67;39.05;100997.13;16138491;19;129496;-60
2022/12/20 23:04:17;;;;;;;4.45;0.52;;;;;;;18.63;39.04;100995.94;16138634;19;129609;-60
2022/12/20 23:09:39;;;;;;;7.47;1.00;;;;;;;18.58;38.81;100995.84;16135936;19;130838;-60
2022/12/20 23:26:22;;;;;;;5.15;0.50;;;;;;;18.44;38.80;100990.56;16125920;19;130513;-60
2022/12/20 23:31:44;;;;;;;4.32;0.50;;;;;;;18.42;39.23;100984.41;16126153;19;130130;-61
2022/12/20 23:37:05;;;;;;;3.20;0.80;;;;;;;18.38;38.98;100980.41;16131988;19;129866;-60
2022/12/20 23:42:28;;;;;;;1.58;0.63;;;;;;;18.36;39.19;100988.13;16133052;19;129438;-60
2022/12/20 23:47:49;;;;;;;1.88;0.40;;;;;;;18.33;38.80;100988.63;16136181;19;129467;-60
2022/12/20 23:53:11;;;;;;;4.20;0.60;;;;;;;18.31;39.03;100985.25;16132649;19;128974;-60
2022/12/20 23:58:33;;;;;;;2.28;0.60;;;;;;;18.27;39.25;100976.59;16135503;19;129577;-60
